sensor_id;sensor_type;location;lat;lon;timestamp;temperature;humidity
37788;DHT22;23627;53.302;-6.362;2023-02-01T00:02:22;6.60;99.90
37788;DHT22;23627;53.302;-6.362;2023-02-01T00:04:48;6.60;99.90
37788;DHT22;23627;53.302;-6.362;2023-02-01T00:07:13;6.60;99.90
37788;DHT22;23627;53.302;-6.362;2023-02-01T00:09:39;6.60;99.90
37788;DHT22;23627;53.302;-6.362;2023-02-01T00:12:05;6.50;99.90
37788;DHT22;23627;53.302;-6.362;2023-02-01T00:14:30;6.50;99.90
37788;DHT22;23627;53.302;-6.362;2023-02-01T00:17:04;6.50;99.90
37788;DHT22;23627;53.302;-6.362;2023-02-01T00:19:30;6.50;99.90
37788;DHT22;23627;53.302;-6.362;2023-02-01T00:21:55;6.50;99.90
37788;DHT22;23627;53.302;-6.362;2023-02-01T00:24:21;6.50;99.90
37788;DHT22;23627;53.302;-6.362;2023-02-01T00:26:46;6.50;99.90
37788;DHT22;23627;53.302;-6.362;2023-02-01T00:29:13;6.50;99.90
37788;DHT22;23627;53.302;-6.362;2023-02-01T00:31:39;6.50;99.90
37788;DHT22;23627;53.302;-6.362;2023-02-01T00:34:05;6.50;99.90
37788;DHT22;23627;53.302;-6.362;2023-02-01T00:36:31;6.50;99.90
37788;DHT22;23627;53.302;-6.362;2023-02-01T00:38:56;6.40;99.90
37788;DHT22;23627;53.302;-6.362;2023-02-01T00:41:22;6.40;99.90
37788;DHT22;23627;53.302;-6.362;2023-02-01T00:43:48;6.40;99.90
37788;DHT22;23627;53.302;-6.362;2023-02-01T00:46:14;6.40;99.90
37788;DHT22;23627;53.302;-6.362;2023-02-01T00:48:40;6.40;99.90
37788;DHT22;23627;53.302;-6.362;2023-02-01T00:51:07;6.40;99.90
37788;DHT22;23627;53.302;-6.362;2023-02-01T00:53:33;6.40;99.90
37788;DHT22;23627;53.302;-6.362;2023-02-01T00:55:59;6.40;99.90
37788;DHT22;23627;53.302;-6.362;2023-02-01T00:58:24;6.40;99.90
37788;DHT22;23627;53.302;-6.362;2023-02-01T01:03:32;6.40;99.90
37788;DHT22;23627;53.302;-6.362;2023-02-01T01:06:01;6.40;99.90
37788;DHT22;23627;53.302;-6.362;2023-02-01T01:08:27;6.40;99.90
37788;DHT22;23627;53.302;-6.362;2023-02-01T01:10:53;6.40;99.90
37788;DHT22;23627;53.302;-6.362;2023-02-01T01:13:18;6.40;99.90
37788;DHT22;23627;53.302;-6.362;2023-02-01T01:15:44;6.40;99.90
37788;DHT22;23627;53.302;-6.362;2023-02-01T01:18:09;6.40;99.90
37788;DHT22;23627;53.302;-6.362;2023-02-01T01:20:35;6.40;99.90
37788;DHT22;23627;53.302;-6.362;2023-02-01T01:23:02;6.40;99.90
37788;DHT22;23627;53.302;-6.362;2023-02-01T01:25:28;6.40;99.90
37788;DHT22;23627;53.302;-6.362;2023-02-01T01:27:53;6.40;99.90
37788;DHT22;23627;53.302;-6.362;2023-02-01T01:30:19;6.40;99.90
37788;DHT22;23627;53.302;-6.362;2023-02-01T01:32:45;6.40;99.90
37788;DHT22;23627;53.302;-6.362;2023-02-01T01:35:10;6.40;99.90
37788;DHT22;23627;53.302;-6.362;2023-02-01T01:37:36;6.50;99.90
37788;DHT22;23627;53.302;-6.362;2023-02-01T01:40:03;6.50;99.90
37788;DHT22;23627;53.302;-6.362;2023-02-01T01:42:28;6.50;99.90
37788;DHT22;23627;53.302;-6.362;2023-02-01T01:47:19;6.50;99.90
37788;DHT22;23627;53.302;-6.362;2023-02-01T01:49:45;6.50;99.90
37788;DHT22;23627;53.302;-6.362;2023-02-01T01:52:10;6.50;99.90
37788;DHT22;23627;53.302;-6.362;2023-02-01T01:54:47;6.50;99.90
37788;DHT22;23627;53.302;-6.362;2023-02-01T01:57:25;6.50;99.90
37788;DHT22;23627;53.302;-6.362;2023-02-01T01:59:54;6.50;99.90
37788;DHT22;23627;53.302;-6.362;2023-02-01T02:02:22;6.50;99.90
37788;DHT22;23627;53.302;-6.362;2023-02-01T02:04:50;6.50;99.90
37788;DHT22;23627;53.302;-6.362;2023-02-01T02:07:23;6.50;99.90
37788;DHT22;23627;53.302;-6.362;2023-02-01T02:09:50;6.50;99.90
37788;DHT22;23627;53.302;-6.362;2023-02-01T02:12:16;6.50;99.90
37788;DHT22;23627;53.302;-6.362;2023-02-01T02:14:41;6.50;99.90
37788;DHT22;23627;53.302;-6.362;2023-02-01T02:36:13;6.40;99.90
37788;DHT22;23627;53.302;-6.362;2023-02-01T02:38:44;6.40;99.90
37788;DHT22;23627;53.302;-6.362;2023-02-01T02:41:14;6.40;99.90
37788;DHT22;23627;53.302;-6.362;2023-02-01T02:44:00;6.40;99.90
37788;DHT22;23627;53.302;-6.362;2023-02-01T02:46:48;6.40;99.90
37788;DHT22;23627;53.302;-6.362;2023-02-01T02:49:36;6.30;99.90
37788;DHT22;23627;53.302;-6.362;2023-02-01T02:52:09;6.40;99.90
37788;DHT22;23627;53.302;-6.362;2023-02-01T02:54:55;6.30;99.90
37788;DHT22;23627;53.302;-6.362;2023-02-01T02:57:23;6.30;99.90
37788;DHT22;23627;53.302;-6.362;2023-02-01T03:00:09;6.30;99.90
37788;DHT22;23627;53.302;-6.362;2023-02-01T03:02:54;6.30;99.90
37788;DHT22;23627;53.302;-6.362;2023-02-01T03:05:40;6.30;99.90
37788;DHT22;23627;53.302;-6.362;2023-02-01T03:08:14;6.30;99.90
37788;DHT22;23627;53.302;-6.362;2023-02-01T03:13:08;6.30;99.90
37788;DHT22;23627;53.302;-6.362;2023-02-01T03:15:49;6.30;99.90
37788;DHT22;23627;53.302;-6.362;2023-02-01T03:18:18;6.30;99.90
37788;DHT22;23627;53.302;-6.362;2023-02-01T03:20:44;6.30;99.90
37788;DHT22;23627;53.302;-6.362;2023-02-01T03:23:12;6.30;99.90
37788;DHT22;23627;53.302;-6.362;2023-02-01T03:25:39;6.30;99.90
37788;DHT22;23627;53.302;-6.362;2023-02-01T03:28:06;6.30;99.90
37788;DHT22;23627;53.302;-6.362;2023-02-01T03:30:43;6.30;99.90
37788;DHT22;23627;53.302;-6.362;2023-02-01T03:33:13;6.30;99.90
37788;DHT22;23627;53.302;-6.362;2023-02-01T03:35:57;6.30;99.90
37788;DHT22;23627;53.302;-6.362;2023-02-01T03:41:02;6.30;99.90
37788;DHT22;23627;53.302;-6.362;2023-02-01T03:43:29;6.20;99.90
37788;DHT22;23627;53.302;-6.362;2023-02-01T03:45:59;6.30;99.90
37788;DHT22;23627;53.302;-6.362;2023-02-01T03:48:25;6.20;99.90
37788;DHT22;23627;53.302;-6.362;2023-02-01T03:50:53;6.20;99.90
37788;DHT22;23627;53.302;-6.362;2023-02-01T03:53:20;6.30;99.90
37788;DHT22;23627;53.302;-6.362;2023-02-01T03:55:47;6.20;99.90
37788;DHT22;23627;53.302;-6.362;2023-02-01T03:58:14;6.20;99.90
37788;DHT22;23627;53.302;-6.362;2023-02-01T04:00:40;6.20;99.90
37788;DHT22;23627;53.302;-6.362;2023-02-01T04:03:09;6.20;99.90
37788;DHT22;23627;53.302;-6.362;2023-02-01T04:05:35;6.20;99.90
37788;DHT22;23627;53.302;-6.362;2023-02-01T04:08:01;6.20;99.90
37788;DHT22;23627;53.302;-6.362;2023-02-01T04:10:26;6.20;99.90
37788;DHT22;23627;53.302;-6.362;2023-02-01T04:12:52;6.20;99.90
37788;DHT22;23627;53.302;-6.362;2023-02-01T04:15:18;6.20;99.90
37788;DHT22;23627;53.302;-6.362;2023-02-01T04:17:43;6.20;99.90
37788;DHT22;23627;53.302;-6.362;2023-02-01T04:20:09;6.20;99.90
37788;DHT22;23627;53.302;-6.362;2023-02-01T04:22:35;6.20;99.90
37788;DHT22;23627;53.302;-6.362;2023-02-01T04:25:01;6.20;99.90
37788;DHT22;23627;53.302;-6.362;2023-02-01T04:27:27;6.20;99.90
37788;DHT22;23627;53.302;-6.362;2023-02-01T04:29:52;6.30;99.90
37788;DHT22;23627;53.302;-6.362;2023-02-01T04:32:18;6.30;99.90
37788;DHT22;23627;53.302;-6.362;2023-02-01T04:34:45;6.30;99.90
37788;DHT22;23627;53.302;-6.362;2023-02-01T04:37:10;6.30;99.90
37788;DHT22;23627;53.302;-6.362;2023-02-01T04:39:36;6.30;99.90
37788;DHT22;23627;53.302;-6.362;2023-02-01T04:42:01;6.30;99.90
37788;DHT22;23627;53.302;-6.362;2023-02-01T04:44:27;6.30;99.90
37788;DHT22;23627;53.302;-6.362;2023-02-01T04:46:53;6.40;99.90
37788;DHT22;23627;53.302;-6.362;2023-02-01T04:49:18;6.40;99.90
37788;DHT22;23627;53.302;-6.362;2023-02-01T04:51:45;6.40;99.90
37788;DHT22;23627;53.302;-6.362;2023-02-01T04:54:10;6.40;99.90
37788;DHT22;23627;53.302;-6.362;2023-02-01T04:56:39;6.40;99.90
37788;DHT22;23627;53.302;-6.362;2023-02-01T04:59:05;6.40;99.90
37788;DHT22;23627;53.302;-6.362;2023-02-01T05:01:30;6.40;99.90
37788;DHT22;23627;53.302;-6.362;2023-02-01T05:03:56;6.40;99.90
37788;DHT22;23627;53.302;-6.362;2023-02-01T05:06:22;6.40;99.90
37788;DHT22;23627;53.302;-6.362;2023-02-01T05:08:47;6.40;99.90
37788;DHT22;23627;53.302;-6.362;2023-02-01T05:11:13;6.40;99.90
37788;DHT22;23627;53.302;-6.362;2023-02-01T05:13:57;6.40;99.90
37788;DHT22;23627;53.302;-6.362;2023-02-01T05:16:24;6.40;99.90
37788;DHT22;23627;53.302;-6.362;2023-02-01T05:18:49;6.40;99.90
37788;DHT22;23627;53.302;-6.362;2023-02-01T05:21:15;6.40;99.90
37788;DHT22;23627;53.302;-6.362;2023-02-01T05:23:40;6.40;99.90
37788;DHT22;23627;53.302;-6.362;2023-02-01T05:26:29;6.40;99.90
37788;DHT22;23627;53.302;-6.362;2023-02-01T05:28:55;6.30;99.90
37788;DHT22;23627;53.302;-6.362;2023-02-01T05:31:20;6.30;99.90
37788;DHT22;23627;53.302;-6.362;2023-02-01T05:33:46;6.30;99.90
37788;DHT22;23627;53.302;-6.362;2023-02-01T05:36:11;6.30;99.90
37788;DHT22;23627;53.302;-6.362;2023-02-01T05:38:37;6.30;99.90
37788;DHT22;23627;53.302;-6.362;2023-02-01T05:41:03;6.30;99.90
37788;DHT22;23627;53.302;-6.362;2023-02-01T05:43:28;6.30;99.90
37788;DHT22;23627;53.302;-6.362;2023-02-01T05:45:54;6.30;99.90
37788;DHT22;23627;53.302;-6.362;2023-02-01T05:48:19;6.30;99.90
37788;DHT22;23627;53.302;-6.362;2023-02-01T05:50:45;6.30;99.90
37788;DHT22;23627;53.302;-6.362;2023-02-01T05:53:10;6.30;99.90
37788;DHT22;23627;53.302;-6.362;2023-02-01T05:55:36;6.40;99.90
37788;DHT22;23627;53.302;-6.362;2023-02-01T05:58:02;6.40;99.90
37788;DHT22;23627;53.302;-6.362;2023-02-01T06:00:27;6.40;99.90
37788;DHT22;23627;53.302;-6.362;2023-02-01T06:02:53;6.40;99.90
37788;DHT22;23627;53.302;-6.362;2023-02-01T06:05:19;6.40;99.90
37788;DHT22;23627;53.302;-6.362;2023-02-01T06:07:44;6.40;99.90
37788;DHT22;23627;53.302;-6.362;2023-02-01T06:10:10;6.40;99.90
37788;DHT22;23627;53.302;-6.362;2023-02-01T06:12:35;6.40;99.90
37788;DHT22;23627;53.302;-6.362;2023-02-01T06:15:01;6.40;99.90
37788;DHT22;23627;53.302;-6.362;2023-02-01T06:17:26;6.40;99.90
37788;DHT22;23627;53.302;-6.362;2023-02-01T06:19:52;6.40;99.90
37788;DHT22;23627;53.302;-6.362;2023-02-01T06:22:18;6.40;99.90
37788;DHT22;23627;53.302;-6.362;2023-02-01T06:24:43;6.40;99.90
37788;DHT22;23627;53.302;-6.362;2023-02-01T06:27:09;6.40;99.90
37788;DHT22;23627;53.302;-6.362;2023-02-01T06:29:35;6.40;99.90
37788;DHT22;23627;53.302;-6.362;2023-02-01T06:32:01;6.40;99.90
37788;DHT22;23627;53.302;-6.362;2023-02-01T06:34:26;6.40;99.90
37788;DHT22;23627;53.302;-6.362;2023-02-01T06:36:52;6.30;99.90
37788;DHT22;23627;53.302;-6.362;2023-02-01T06:39:18;6.30;99.90
37788;DHT22;23627;53.302;-6.362;2023-02-01T06:41:47;6.30;99.90
37788;DHT22;23627;53.302;-6.362;2023-02-01T06:44:15;6.30;99.90
37788;DHT22;23627;53.302;-6.362;2023-02-01T06:46:42;6.30;99.90
37788;DHT22;23627;53.302;-6.362;2023-02-01T06:49:08;6.40;99.90
37788;DHT22;23627;53.302;-6.362;2023-02-01T06:51:34;6.30;99.90
37788;DHT22;23627;53.302;-6.362;2023-02-01T06:53:59;6.40;99.90
37788;DHT22;23627;53.302;-6.362;2023-02-01T06:56:25;6.40;99.90
37788;DHT22;23627;53.302;-6.362;2023-02-01T06:58:51;6.40;99.90
37788;DHT22;23627;53.302;-6.362;2023-02-01T07:01:16;6.40;99.90
37788;DHT22;23627;53.302;-6.362;2023-02-01T07:03:42;6.40;99.90
37788;DHT22;23627;53.302;-6.362;2023-02-01T07:06:08;6.40;99.90
37788;DHT22;23627;53.302;-6.362;2023-02-01T07:08:35;6.40;99.90
37788;DHT22;23627;53.302;-6.362;2023-02-01T07:11:05;6.40;99.90
37788;DHT22;23627;53.302;-6.362;2023-02-01T07:13:31;6.40;99.90
37788;DHT22;23627;53.302;-6.362;2023-02-01T07:16:00;6.50;99.90
37788;DHT22;23627;53.302;-6.362;2023-02-01T07:18:26;6.50;99.90
37788;DHT22;23627;53.302;-6.362;2023-02-01T07:20:53;6.50;99.90
37788;DHT22;23627;53.302;-6.362;2023-02-01T07:23:18;6.50;99.90
37788;DHT22;23627;53.302;-6.362;2023-02-01T07:25:45;6.50;99.90
37788;DHT22;23627;53.302;-6.362;2023-02-01T07:28:11;6.50;99.90
37788;DHT22;23627;53.302;-6.362;2023-02-01T07:30:36;6.50;99.90
37788;DHT22;23627;53.302;-6.362;2023-02-01T07:33:02;6.50;99.90
37788;DHT22;23627;53.302;-6.362;2023-02-01T07:35:28;6.50;99.90
37788;DHT22;23627;53.302;-6.362;2023-02-01T07:37:54;6.60;99.90
37788;DHT22;23627;53.302;-6.362;2023-02-01T07:40:19;6.50;99.90
37788;DHT22;23627;53.302;-6.362;2023-02-01T07:42:50;6.60;99.90
37788;DHT22;23627;53.302;-6.362;2023-02-01T07:45:15;6.60;99.90
37788;DHT22;23627;53.302;-6.362;2023-02-01T07:47:41;6.60;99.90
37788;DHT22;23627;53.302;-6.362;2023-02-01T07:50:07;6.60;99.90
37788;DHT22;23627;53.302;-6.362;2023-02-01T07:52:33;6.60;99.90
37788;DHT22;23627;53.302;-6.362;2023-02-01T07:54:58;6.60;99.90
37788;DHT22;23627;53.302;-6.362;2023-02-01T07:57:24;6.60;99.90
37788;DHT22;23627;53.302;-6.362;2023-02-01T07:59:49;6.60;99.90
37788;DHT22;23627;53.302;-6.362;2023-02-01T08:02:34;6.60;99.90
37788;DHT22;23627;53.302;-6.362;2023-02-01T08:04:59;6.60;99.90
37788;DHT22;23627;53.302;-6.362;2023-02-01T08:07:25;6.60;99.90
37788;DHT22;23627;53.302;-6.362;2023-02-01T08:09:50;6.60;99.90
37788;DHT22;23627;53.302;-6.362;2023-02-01T08:12:16;6.60;99.90
37788;DHT22;23627;53.302;-6.362;2023-02-01T08:14:42;6.60;99.90
37788;DHT22;23627;53.302;-6.362;2023-02-01T08:17:07;6.60;99.90
37788;DHT22;23627;53.302;-6.362;2023-02-01T08:19:33;6.60;99.90
37788;DHT22;23627;53.302;-6.362;2023-02-01T08:21:59;6.70;99.90
37788;DHT22;23627;53.302;-6.362;2023-02-01T08:24:24;6.70;99.90
37788;DHT22;23627;53.302;-6.362;2023-02-01T08:26:50;6.70;99.90
37788;DHT22;23627;53.302;-6.362;2023-02-01T08:29:15;6.70;99.90
37788;DHT22;23627;53.302;-6.362;2023-02-01T08:31:41;6.70;99.90
37788;DHT22;23627;53.302;-6.362;2023-02-01T08:34:07;6.80;99.90
37788;DHT22;23627;53.302;-6.362;2023-02-01T08:36:34;6.80;99.90
37788;DHT22;23627;53.302;-6.362;2023-02-01T08:39:00;6.80;99.90
37788;DHT22;23627;53.302;-6.362;2023-02-01T08:41:27;6.80;99.90
37788;DHT22;23627;53.302;-6.362;2023-02-01T08:43:53;6.80;99.90
37788;DHT22;23627;53.302;-6.362;2023-02-01T08:46:19;6.80;99.90
37788;DHT22;23627;53.302;-6.362;2023-02-01T08:48:45;6.90;99.90
37788;DHT22;23627;53.302;-6.362;2023-02-01T08:51:13;6.90;99.90
37788;DHT22;23627;53.302;-6.362;2023-02-01T08:53:39;6.90;99.90
37788;DHT22;23627;53.302;-6.362;2023-02-01T08:56:06;6.90;99.90
37788;DHT22;23627;53.302;-6.362;2023-02-01T08:58:32;7.00;99.90
37788;DHT22;23627;53.302;-6.362;2023-02-01T09:01:08;7.00;99.90
37788;DHT22;23627;53.302;-6.362;2023-02-01T09:03:34;7.00;99.90
37788;DHT22;23627;53.302;-6.362;2023-02-01T09:06:04;7.10;99.90
37788;DHT22;23627;53.302;-6.362;2023-02-01T09:08:30;7.10;99.90
37788;DHT22;23627;53.302;-6.362;2023-02-01T09:11:00;7.20;99.90
37788;DHT22;23627;53.302;-6.362;2023-02-01T09:13:26;7.20;99.90
37788;DHT22;23627;53.302;-6.362;2023-02-01T09:15:52;7.30;99.90
37788;DHT22;23627;53.302;-6.362;2023-02-01T09:18:17;7.30;99.90
37788;DHT22;23627;53.302;-6.362;2023-02-01T09:20:43;7.30;99.90
37788;DHT22;23627;53.302;-6.362;2023-02-01T09:23:08;7.40;99.90
37788;DHT22;23627;53.302;-6.362;2023-02-01T09:25:36;7.40;99.90
37788;DHT22;23627;53.302;-6.362;2023-02-01T09:28:01;7.40;99.90
37788;DHT22;23627;53.302;-6.362;2023-02-01T09:30:29;7.50;99.90
37788;DHT22;23627;53.302;-6.362;2023-02-01T09:32:54;7.50;99.90
37788;DHT22;23627;53.302;-6.362;2023-02-01T09:35:20;7.60;99.90
37788;DHT22;23627;53.302;-6.362;2023-02-01T09:37:45;7.60;99.90
37788;DHT22;23627;53.302;-6.362;2023-02-01T09:40:15;7.70;99.90
37788;DHT22;23627;53.302;-6.362;2023-02-01T09:42:47;7.70;99.90
37788;DHT22;23627;53.302;-6.362;2023-02-01T09:48:24;7.80;99.90
37788;DHT22;23627;53.302;-6.362;2023-02-01T09:50:54;7.70;99.90
37788;DHT22;23627;53.302;-6.362;2023-02-01T09:53:28;7.70;99.90
37788;DHT22;23627;53.302;-6.362;2023-02-01T09:55:55;7.70;99.90
37788;DHT22;23627;53.302;-6.362;2023-02-01T09:58:23;7.80;99.90
37788;DHT22;23627;53.302;-6.362;2023-02-01T10:00:52;7.80;99.90
37788;DHT22;23627;53.302;-6.362;2023-02-01T10:03:18;7.90;99.90
37788;DHT22;23627;53.302;-6.362;2023-02-01T10:08:19;7.90;99.90
37788;DHT22;23627;53.302;-6.362;2023-02-01T10:10:51;8.00;99.90
37788;DHT22;23627;53.302;-6.362;2023-02-01T10:15:55;8.20;99.90
37788;DHT22;23627;53.302;-6.362;2023-02-01T10:18:27;8.30;99.90
37788;DHT22;23627;53.302;-6.362;2023-02-01T10:28:30;8.40;99.90
37788;DHT22;23627;53.302;-6.362;2023-02-01T10:30:58;8.50;99.90
37788;DHT22;23627;53.302;-6.362;2023-02-01T10:33:35;8.50;99.90
37788;DHT22;23627;53.302;-6.362;2023-02-01T10:38:31;8.60;99.90
37788;DHT22;23627;53.302;-6.362;2023-02-01T10:41:01;8.70;99.90
37788;DHT22;23627;53.302;-6.362;2023-02-01T10:43:28;8.70;99.90
37788;DHT22;23627;53.302;-6.362;2023-02-01T10:45:54;8.70;99.90
37788;DHT22;23627;53.302;-6.362;2023-02-01T10:48:19;8.70;99.90
37788;DHT22;23627;53.302;-6.362;2023-02-01T10:50:53;8.80;99.90
37788;DHT22;23627;53.302;-6.362;2023-02-01T10:58:15;9.00;99.90
37788;DHT22;23627;53.302;-6.362;2023-02-01T11:00:48;9.00;99.90
37788;DHT22;23627;53.302;-6.362;2023-02-01T11:03:27;9.10;99.90
37788;DHT22;23627;53.302;-6.362;2023-02-01T11:05:55;9.10;99.90
37788;DHT22;23627;53.302;-6.362;2023-02-01T11:08:21;9.10;99.90
37788;DHT22;23627;53.302;-6.362;2023-02-01T11:10:47;9.10;99.90
37788;DHT22;23627;53.302;-6.362;2023-02-01T11:13:22;9.20;99.90
37788;DHT22;23627;53.302;-6.362;2023-02-01T11:15:54;9.30;99.90
37788;DHT22;23627;53.302;-6.362;2023-02-01T11:18:24;9.40;99.90
37788;DHT22;23627;53.302;-6.362;2023-02-01T11:20:52;9.50;99.90
37788;DHT22;23627;53.302;-6.362;2023-02-01T11:23:18;9.50;99.90
37788;DHT22;23627;53.302;-6.362;2023-02-01T11:25:49;9.50;99.90
37788;DHT22;23627;53.302;-6.362;2023-02-01T11:28:15;9.50;99.90
37788;DHT22;23627;53.302;-6.362;2023-02-01T11:30:41;9.50;99.90
37788;DHT22;23627;53.302;-6.362;2023-02-01T11:33:13;9.40;99.90
37788;DHT22;23627;53.302;-6.362;2023-02-01T11:35:38;9.40;99.90
37788;DHT22;23627;53.302;-6.362;2023-02-01T11:38:38;9.40;99.90
37788;DHT22;23627;53.302;-6.362;2023-02-01T11:41:13;9.40;99.90
37788;DHT22;23627;53.302;-6.362;2023-02-01T11:43:50;9.40;99.90
37788;DHT22;23627;53.302;-6.362;2023-02-01T11:46:17;9.50;99.90
37788;DHT22;23627;53.302;-6.362;2023-02-01T11:48:47;9.50;99.90
37788;DHT22;23627;53.302;-6.362;2023-02-01T11:51:37;9.60;99.90
37788;DHT22;23627;53.302;-6.362;2023-02-01T12:11:43;10.00;99.90
37788;DHT22;23627;53.302;-6.362;2023-02-01T12:16:52;10.00;99.90
37788;DHT22;23627;53.302;-6.362;2023-02-01T12:19:27;10.10;99.90
37788;DHT22;23627;53.302;-6.362;2023-02-01T12:26:50;10.20;99.90
37788;DHT22;23627;53.302;-6.362;2023-02-01T12:34:48;10.30;99.90
37788;DHT22;23627;53.302;-6.362;2023-02-01T12:40:20;10.40;99.90
37788;DHT22;23627;53.302;-6.362;2023-02-01T12:42:50;10.40;99.90
37788;DHT22;23627;53.302;-6.362;2023-02-01T12:45:26;10.40;99.90
37788;DHT22;23627;53.302;-6.362;2023-02-01T12:48:01;10.40;99.90
37788;DHT22;23627;53.302;-6.362;2023-02-01T12:50:31;10.40;99.90
37788;DHT22;23627;53.302;-6.362;2023-02-01T12:55:53;10.40;99.90
37788;DHT22;23627;53.302;-6.362;2023-02-01T12:58:34;10.40;99.90
37788;DHT22;23627;53.302;-6.362;2023-02-01T13:01:06;10.50;99.90
37788;DHT22;23627;53.302;-6.362;2023-02-01T13:03:35;10.50;99.90
37788;DHT22;23627;53.302;-6.362;2023-02-01T13:06:08;10.50;99.90
37788;DHT22;23627;53.302;-6.362;2023-02-01T13:08:40;10.60;99.90
37788;DHT22;23627;53.302;-6.362;2023-02-01T13:11:09;10.60;99.90
37788;DHT22;23627;53.302;-6.362;2023-02-01T13:13:44;10.60;99.90
37788;DHT22;23627;53.302;-6.362;2023-02-01T13:18:38;10.70;99.90
37788;DHT22;23627;53.302;-6.362;2023-02-01T13:23:31;10.70;99.90
37788;DHT22;23627;53.302;-6.362;2023-02-01T13:25:58;10.70;99.90
37788;DHT22;23627;53.302;-6.362;2023-02-01T13:42:01;10.50;99.90
37788;DHT22;23627;53.302;-6.362;2023-02-01T13:44:49;10.50;99.90
37788;DHT22;23627;53.302;-6.362;2023-02-01T13:52:50;10.50;99.90
37788;DHT22;23627;53.302;-6.362;2023-02-01T13:57:46;10.50;99.90
37788;DHT22;23627;53.302;-6.362;2023-02-01T14:00:25;10.50;99.90
37788;DHT22;23627;53.302;-6.362;2023-02-01T14:13:37;10.60;99.90
37788;DHT22;23627;53.302;-6.362;2023-02-01T14:21:19;10.60;99.90
37788;DHT22;23627;53.302;-6.362;2023-02-01T14:26:19;10.60;99.90
37788;DHT22;23627;53.302;-6.362;2023-02-01T14:28:49;10.60;99.90
37788;DHT22;23627;53.302;-6.362;2023-02-01T14:31:17;10.60;99.90
37788;DHT22;23627;53.302;-6.362;2023-02-01T14:33:43;10.60;99.90
37788;DHT22;23627;53.302;-6.362;2023-02-01T14:36:10;10.60;99.90
37788;DHT22;23627;53.302;-6.362;2023-02-01T14:38:37;10.60;99.90
37788;DHT22;23627;53.302;-6.362;2023-02-01T14:44:13;10.70;99.90
37788;DHT22;23627;53.302;-6.362;2023-02-01T14:49:21;10.80;99.90
37788;DHT22;23627;53.302;-6.362;2023-02-01T14:51:47;10.80;99.90
37788;DHT22;23627;53.302;-6.362;2023-02-01T14:54:12;10.80;99.90
37788;DHT22;23627;53.302;-6.362;2023-02-01T14:56:39;10.90;99.90
37788;DHT22;23627;53.302;-6.362;2023-02-01T14:59:08;10.90;99.90
37788;DHT22;23627;53.302;-6.362;2023-02-01T15:01:38;10.90;99.90
37788;DHT22;23627;53.302;-6.362;2023-02-01T15:04:05;10.80;99.90
37788;DHT22;23627;53.302;-6.362;2023-02-01T15:06:41;10.80;99.90
37788;DHT22;23627;53.302;-6.362;2023-02-01T15:09:09;10.80;99.90
37788;DHT22;23627;53.302;-6.362;2023-02-01T15:14:19;10.70;99.90
37788;DHT22;23627;53.302;-6.362;2023-02-01T15:16:45;10.60;99.90
37788;DHT22;23627;53.302;-6.362;2023-02-01T15:19:19;10.60;99.90
37788;DHT22;23627;53.302;-6.362;2023-02-01T15:21:46;10.50;99.90
37788;DHT22;23627;53.302;-6.362;2023-02-01T15:24:26;10.50;99.90
37788;DHT22;23627;53.302;-6.362;2023-02-01T15:26:52;10.40;99.90
37788;DHT22;23627;53.302;-6.362;2023-02-01T15:29:18;10.40;99.90
37788;DHT22;23627;53.302;-6.362;2023-02-01T15:31:46;10.40;99.90
37788;DHT22;23627;53.302;-6.362;2023-02-01T15:34:12;10.40;99.90
37788;DHT22;23627;53.302;-6.362;2023-02-01T15:36:38;10.40;99.90
37788;DHT22;23627;53.302;-6.362;2023-02-01T15:41:51;10.40;99.90
37788;DHT22;23627;53.302;-6.362;2023-02-01T15:46:47;10.40;99.90
37788;DHT22;23627;53.302;-6.362;2023-02-01T15:51:49;10.40;99.90
37788;DHT22;23627;53.302;-6.362;2023-02-01T15:54:23;10.40;99.90
37788;DHT22;23627;53.302;-6.362;2023-02-01T15:56:51;10.30;99.90
37788;DHT22;23627;53.302;-6.362;2023-02-01T15:59:24;10.30;99.90
37788;DHT22;23627;53.302;-6.362;2023-02-01T16:01:53;10.30;99.90
37788;DHT22;23627;53.302;-6.362;2023-02-01T16:04:23;10.30;99.90
37788;DHT22;23627;53.302;-6.362;2023-02-01T16:06:50;10.30;99.90
37788;DHT22;23627;53.302;-6.362;2023-02-01T16:09:17;10.20;99.90
37788;DHT22;23627;53.302;-6.362;2023-02-01T16:11:48;10.20;99.90
37788;DHT22;23627;53.302;-6.362;2023-02-01T16:14:14;10.20;99.90
37788;DHT22;23627;53.302;-6.362;2023-02-01T16:16:40;10.20;99.90
37788;DHT22;23627;53.302;-6.362;2023-02-01T16:19:06;10.20;99.90
37788;DHT22;23627;53.302;-6.362;2023-02-01T16:21:31;10.10;99.90
37788;DHT22;23627;53.302;-6.362;2023-02-01T16:23:57;10.10;99.90
37788;DHT22;23627;53.302;-6.362;2023-02-01T16:26:24;10.10;99.90
37788;DHT22;23627;53.302;-6.362;2023-02-01T16:28:50;10.00;99.90
37788;DHT22;23627;53.302;-6.362;2023-02-01T16:31:17;10.00;99.90
37788;DHT22;23627;53.302;-6.362;2023-02-01T16:33:49;10.00;99.90
37788;DHT22;23627;53.302;-6.362;2023-02-01T16:36:15;10.00;99.90
37788;DHT22;23627;53.302;-6.362;2023-02-01T16:38:41;10.00;99.90
37788;DHT22;23627;53.302;-6.362;2023-02-01T16:41:09;10.00;99.90
37788;DHT22;23627;53.302;-6.362;2023-02-01T16:43:35;9.90;99.90
37788;DHT22;23627;53.302;-6.362;2023-02-01T16:46:01;9.90;99.90
37788;DHT22;23627;53.302;-6.362;2023-02-01T16:48:33;9.80;99.90
37788;DHT22;23627;53.302;-6.362;2023-02-01T16:51:08;9.80;99.90
37788;DHT22;23627;53.302;-6.362;2023-02-01T16:53:34;9.80;99.90
37788;DHT22;23627;53.302;-6.362;2023-02-01T16:56:00;9.80;99.90
37788;DHT22;23627;53.302;-6.362;2023-02-01T16:58:27;9.80;99.90
37788;DHT22;23627;53.302;-6.362;2023-02-01T17:00:53;9.70;99.90
37788;DHT22;23627;53.302;-6.362;2023-02-01T17:03:20;9.70;99.90
37788;DHT22;23627;53.302;-6.362;2023-02-01T17:05:49;9.70;99.90
37788;DHT22;23627;53.302;-6.362;2023-02-01T17:08:17;9.70;99.90
37788;DHT22;23627;53.302;-6.362;2023-02-01T17:10:44;9.70;99.90
37788;DHT22;23627;53.302;-6.362;2023-02-01T17:13:14;9.70;99.90
37788;DHT22;23627;53.302;-6.362;2023-02-01T17:15:40;9.60;99.90
37788;DHT22;23627;53.302;-6.362;2023-02-01T17:18:08;9.60;99.90
37788;DHT22;23627;53.302;-6.362;2023-02-01T17:20:39;9.60;99.90
37788;DHT22;23627;53.302;-6.362;2023-02-01T17:23:05;9.60;99.90
37788;DHT22;23627;53.302;-6.362;2023-02-01T17:25:30;9.50;99.90
37788;DHT22;23627;53.302;-6.362;2023-02-01T17:27:56;9.50;99.90
37788;DHT22;23627;53.302;-6.362;2023-02-01T17:30:22;9.50;99.90
37788;DHT22;23627;53.302;-6.362;2023-02-01T17:32:47;9.50;99.90
37788;DHT22;23627;53.302;-6.362;2023-02-01T17:35:20;9.50;99.90
37788;DHT22;23627;53.302;-6.362;2023-02-01T17:37:46;9.50;99.90
37788;DHT22;23627;53.302;-6.362;2023-02-01T17:40:12;9.50;99.90
37788;DHT22;23627;53.302;-6.362;2023-02-01T17:42:38;9.50;99.90
37788;DHT22;23627;53.302;-6.362;2023-02-01T17:47:48;9.40;99.90
37788;DHT22;23627;53.302;-6.362;2023-02-01T17:50:13;9.40;99.90
37788;DHT22;23627;53.302;-6.362;2023-02-01T17:52:39;9.40;99.90
37788;DHT22;23627;53.302;-6.362;2023-02-01T17:55:13;9.40;99.90
37788;DHT22;23627;53.302;-6.362;2023-02-01T17:57:40;9.40;99.90
37788;DHT22;23627;53.302;-6.362;2023-02-01T18:00:06;9.30;99.90
37788;DHT22;23627;53.302;-6.362;2023-02-01T18:02:32;9.30;99.90
37788;DHT22;23627;53.302;-6.362;2023-02-01T18:04:57;9.30;99.90
37788;DHT22;23627;53.302;-6.362;2023-02-01T18:07:24;9.30;99.90